createdAt,value
2019-03-20T00:00:43.090Z,67.37
2019-03-20T00:03:14.691Z,67.63
2019-03-20T00:05:46.340Z,67.22
2019-03-20T00:08:18.047Z,67.41
2019-03-20T00:10:49.643Z,68.00
2019-03-20T00:13:21.398Z,68.54
2019-03-20T00:15:53.259Z,69.13
2019-03-20T00:18:25.016Z,69.06
2019-03-20T00:20:56.565Z,69.77
2019-03-20T00:23:29.046Z,70.12
2019-03-20T00:26:00.388Z,70.00
2019-03-20T00:28:32.251Z,70.66
2019-03-20T00:31:04.011Z,70.50
2019-03-20T00:33:35.665Z,71.55
2019-03-20T00:36:07.527Z,71.71
2019-03-20T00:38:39.386Z,72.13
2019-03-20T00:41:11.040Z,71.99
2019-03-20T00:43:42.801Z,71.73
2019-03-20T00:46:14.410Z,72.32
2019-03-20T00:48:46.316Z,72.40
2019-03-20T00:51:17.973Z,72.78
2019-03-20T00:53:49.728Z,73.88
2019-03-20T00:56:21.490Z,73.71
2019-03-20T00:58:53.249Z,74.02
2019-03-20T01:01:25.107Z,73.96
2019-03-20T01:03:56.866Z,74.15
2019-03-20T01:06:28.453Z,73.80
2019-03-20T01:09:00.029Z,73.92
2019-03-20T01:11:31.629Z,73.99
2019-03-20T01:14:03.393Z,74.47
2019-03-20T01:16:35.101Z,73.71
2019-03-20T01:19:06.801Z,74.38
2019-03-20T01:21:39.375Z,74.27
2019-03-20T01:24:11.135Z,74.50
2019-03-20T01:26:42.894Z,73.87
2019-03-20T01:29:14.343Z,74.46
2019-03-20T01:31:45.985Z,74.91
2019-03-20T01:34:17.662Z,75.40
2019-03-20T01:36:49.367Z,74.91
2019-03-20T01:39:21.189Z,75.20
2019-03-20T01:41:52.928Z,75.10
2019-03-20T01:44:24.710Z,75.65
2019-03-20T01:46:56.558Z,75.95
2019-03-20T01:49:28.203Z,75.28
2019-03-20T01:52:00.063Z,75.76
2019-03-20T01:54:31.626Z,75.79
2019-03-20T01:57:03.194Z,76.42
2019-03-20T01:59:35.041Z,76.71
2019-03-20T02:02:06.788Z,76.75
2019-03-20T02:04:38.487Z,76.55
2019-03-20T02:07:10.200Z,76.61
2019-03-20T02:09:42.779Z,76.83
2019-03-20T02:12:14.386Z,77.20
2019-03-20T02:14:46.089Z,76.98
2019-03-20T02:17:17.775Z,77.21
2019-03-20T02:19:49.401Z,77.60
2019-03-20T02:22:21.164Z,77.56
2019-03-20T02:24:52.922Z,77.26
2019-03-20T02:27:24.674Z,77.82
2019-03-20T02:29:56.198Z,77.82
2019-03-20T02:32:27.577Z,78.12
2019-03-20T02:34:59.503Z,78.11
2019-03-20T02:37:31.031Z,78.05
2019-03-20T02:40:02.976Z,78.04
2019-03-20T02:42:34.514Z,78.12
2019-03-20T02:45:08.914Z,78.20
2019-03-20T02:47:40.584Z,78.02
2019-03-20T02:50:13.169Z,78.08
2019-03-20T02:52:45.236Z,77.89
2019-03-20T02:55:17.909Z,77.85
2019-03-20T02:57:49.772Z,77.85
2019-03-20T03:00:21.752Z,78.34
2019-03-20T03:02:53.290Z,78.25
2019-03-20T03:05:24.942Z,78.28
2019-03-20T03:07:56.652Z,78.17
2019-03-20T03:10:28.256Z,78.31
2019-03-20T03:13:00.162Z,78.19
2019-03-20T03:15:31.870Z,78.46
2019-03-20T03:18:03.533Z,78.91
2019-03-20T03:20:35.386Z,78.71
2019-03-20T03:23:07.042Z,78.86
2019-03-20T03:25:38.730Z,78.41
2019-03-20T03:28:10.352Z,78.49
2019-03-20T03:30:42.115Z,79.04
2019-03-20T03:33:13.831Z,79.45
2019-03-20T03:35:45.936Z,79.34
2019-03-20T03:38:17.696Z,79.01
2019-03-20T03:40:49.373Z,79.44
2019-03-20T03:43:24.072Z,79.22
2019-03-20T03:45:54.312Z,79.06
2019-03-20T03:48:25.824Z,79.36
2019-03-20T03:50:57.290Z,79.66
2019-03-20T03:53:29.060Z,79.62
2019-03-20T03:56:00.718Z,79.80
2019-03-20T03:58:32.894Z,79.70
2019-03-20T04:01:04.441Z,79.83
2019-03-20T04:03:36.297Z,79.97
2019-03-20T04:06:07.947Z,79.38
2019-03-20T04:08:39.715Z,78.42
2019-03-20T04:11:11.780Z,77.97
2019-03-20T04:13:43.547Z,78.35
2019-03-20T04:16:14.970Z,78.44
2019-03-20T04:18:46.754Z,78.93
2019-03-20T04:21:18.810Z,77.93
2019-03-20T04:23:51.183Z,78.22
2019-03-20T04:26:22.937Z,78.25
2019-03-20T04:28:54.593Z,78.23
2019-03-20T04:31:26.254Z,78.75
2019-03-20T04:33:58.007Z,79.26
2019-03-20T04:36:29.595Z,80.04
2019-03-20T04:39:01.220Z,79.23
2019-03-20T04:41:33.823Z,78.54
2019-03-20T04:44:05.655Z,78.45
2019-03-20T04:46:37.310Z,79.10
2019-03-20T04:49:09.067Z,79.38
2019-03-20T04:51:41.129Z,79.97
2019-03-20T04:54:12.791Z,79.22
2019-03-20T04:56:44.649Z,79.87
2019-03-20T04:59:16.310Z,80.12
2019-03-20T05:01:48.165Z,78.92
2019-03-20T05:04:19.819Z,79.91
2019-03-20T05:06:58.837Z,79.95
2019-03-20T05:09:24.665Z,81.70
2019-03-20T05:11:56.330Z,81.05
2019-03-20T05:14:28.087Z,80.31
2019-03-20T05:16:59.739Z,80.05
2019-03-20T05:19:31.498Z,81.00
2019-03-20T05:22:03.359Z,79.94
2019-03-20T05:24:35.990Z,82.73
2019-03-20T05:27:07.587Z,80.79
2019-03-20T05:29:39.515Z,81.13
2019-03-20T05:32:11.206Z,80.82
2019-03-20T05:34:43.069Z,82.10
2019-03-20T05:37:14.725Z,80.33
2019-03-20T05:39:46.588Z,79.64
2019-03-20T05:42:18.141Z,79.24
2019-03-20T05:44:49.894Z,78.98
2019-03-20T05:47:21.454Z,78.45
2019-03-20T05:49:53.109Z,80.18
2019-03-20T05:52:24.822Z,78.40
2019-03-20T05:54:56.416Z,77.93
2019-03-20T05:57:28.276Z,80.23
2019-03-20T06:00:00.036Z,77.51
2019-03-20T06:02:32.342Z,77.25
2019-03-20T06:05:03.536Z,79.07
2019-03-20T06:07:35.106Z,77.84
2019-03-20T06:10:09.864Z,76.61
2019-03-20T06:12:42.305Z,75.12
2019-03-20T06:15:14.788Z,77.11
2019-03-20T06:17:47.140Z,76.70
2019-03-20T06:20:18.710Z,78.31
2019-03-20T06:22:50.262Z,75.59
2019-03-20T06:25:21.931Z,76.89
2019-03-20T06:27:53.867Z,77.33
2019-03-20T06:30:25.646Z,76.94
2019-03-20T06:32:59.699Z,77.63
2019-03-20T06:35:32.535Z,75.88
2019-03-20T06:38:04.191Z,76.36
2019-03-20T06:40:36.061Z,76.67
2019-03-20T06:43:07.817Z,78.28
2019-03-20T06:45:40.526Z,76.97
2019-03-20T06:48:11.925Z,76.42
2019-03-20T06:50:43.697Z,77.23
2019-03-20T06:53:15.008Z,77.51
2019-03-20T06:55:46.558Z,78.01
2019-03-20T06:58:18.678Z,77.39
2019-03-20T07:01:04.964Z,77.43
2019-03-20T07:03:49.009Z,74.92
2019-03-20T07:06:46.090Z,75.40
2019-03-20T07:09:32.697Z,75.47
2019-03-20T07:12:04.457Z,77.25
2019-03-20T07:14:36.186Z,75.91
2019-03-20T07:17:08.165Z,76.24
2019-03-20T07:19:40.318Z,77.41
2019-03-20T07:22:12.383Z,76.32
2019-03-20T07:24:44.341Z,75.37
2019-03-20T07:27:16.100Z,76.13
2019-03-20T07:29:47.682Z,74.50
2019-03-20T07:32:19.326Z,75.03
2019-03-20T07:34:51.049Z,73.65
2019-03-20T07:37:22.830Z,72.32
2019-03-20T07:39:54.585Z,72.44
2019-03-20T07:42:26.363Z,73.83
2019-03-20T07:44:58.098Z,71.73
2019-03-20T07:47:29.801Z,72.71
2019-03-20T07:50:01.437Z,70.97
2019-03-20T07:52:33.178Z,71.81
2019-03-20T07:55:05.645Z,70.09
2019-03-20T07:57:37.300Z,69.62
2019-03-20T08:00:12.437Z,68.00
2019-03-20T08:02:43.711Z,67.33
2019-03-20T08:05:15.236Z,66.80
2019-03-20T08:07:46.903Z,65.94
2019-03-20T08:10:23.049Z,63.22
2019-03-20T08:12:54.403Z,60.50
2019-03-20T08:15:25.777Z,56.08
2019-03-20T08:17:57.200Z,56.62
2019-03-20T08:20:29.885Z,55.53
2019-03-20T08:23:01.886Z,54.96
2019-03-20T08:25:34.420Z,51.76
2019-03-20T08:28:06.509Z,50.15
2019-03-20T08:30:38.250Z,53.67
2019-03-20T08:33:10.005Z,49.83
2019-03-20T08:35:42.584Z,49.09
2019-03-20T08:38:18.660Z,51.92
2019-03-20T08:40:47.467Z,50.25
2019-03-20T08:43:19.282Z,50.77
2019-03-20T08:45:51.043Z,52.66
2019-03-20T08:48:22.701Z,57.42
2019-03-20T08:50:54.039Z,56.06
2019-03-20T08:53:25.398Z,52.45
2019-03-20T08:55:58.102Z,54.54
2019-03-20T08:58:29.800Z,57.98
2019-03-20T09:01:04.464Z,56.40
2019-03-20T09:03:35.870Z,54.08
2019-03-20T09:06:07.603Z,51.52
2019-03-20T09:08:39.021Z,52.33
2019-03-20T09:11:10.442Z,52.50
2019-03-20T09:13:41.826Z,51.82
2019-03-20T09:16:13.216Z,51.61
2019-03-20T09:18:44.508Z,51.58
2019-03-20T09:21:15.830Z,51.83
2019-03-20T09:23:47.147Z,48.21
2019-03-20T09:26:18.663Z,50.72
2019-03-20T09:28:51.096Z,51.23
2019-03-20T09:31:23.927Z,52.43
2019-03-20T09:33:55.419Z,51.79
2019-03-20T09:36:27.157Z,50.83
2019-03-20T09:38:58.649Z,50.32
2019-03-20T09:41:30.324Z,48.32
2019-03-20T09:44:02.523Z,47.19
2019-03-20T09:46:34.434Z,46.19
2019-03-20T09:49:06.134Z,48.51
2019-03-20T09:51:37.886Z,48.79
2019-03-20T09:54:09.749Z,47.54
2019-03-20T09:56:41.024Z,47.13
2019-03-20T09:59:12.577Z,46.67
2019-03-20T10:01:43.917Z,47.25
2019-03-20T10:04:15.249Z,44.38
2019-03-20T10:06:46.590Z,46.24
2019-03-20T10:09:20.676Z,43.49
2019-03-20T10:11:52.059Z,46.24
2019-03-20T10:14:24.085Z,45.68
2019-03-20T10:16:55.414Z,41.73
2019-03-20T10:19:26.773Z,48.34
2019-03-20T10:21:58.132Z,47.38
2019-03-20T10:24:30.421Z,46.73
2019-03-20T10:27:01.659Z,43.93
2019-03-20T10:29:33.576Z,46.17
2019-03-20T10:32:05.048Z,46.14
2019-03-20T10:34:39.632Z,44.62
2019-03-20T10:37:09.699Z,45.10
2019-03-20T10:39:41.081Z,43.10
2019-03-20T10:42:12.351Z,43.60
2019-03-20T10:44:43.912Z,43.58
2019-03-20T10:47:15.168Z,42.04
2019-03-20T10:49:46.636Z,44.46
2019-03-20T10:52:18.140Z,43.83
2019-03-20T10:54:49.823Z,43.21
2019-03-20T10:57:21.134Z,42.98
2019-03-20T10:59:52.846Z,43.67
2019-03-20T11:02:24.421Z,43.82
2019-03-20T11:04:55.901Z,44.27
2019-03-20T11:07:27.789Z,43.18
2019-03-20T11:09:59.415Z,43.37
2019-03-20T11:12:31.085Z,42.51
2019-03-20T11:15:02.855Z,40.77
2019-03-20T11:17:34.450Z,42.40
2019-03-20T11:20:08.415Z,42.45
2019-03-20T11:22:40.183Z,42.47
2019-03-20T11:25:24.833Z,42.58
2019-03-20T11:27:56.191Z,42.38
2019-03-20T11:30:34.065Z,40.17
2019-03-20T11:33:06.026Z,40.67
2019-03-20T11:35:37.889Z,40.50
2019-03-20T11:38:10.155Z,41.68
2019-03-20T11:40:42.378Z,40.65
2019-03-20T11:43:14.186Z,42.54
2019-03-20T11:45:47.359Z,40.41
2019-03-20T11:48:19.555Z,40.55
2019-03-20T11:50:51.718Z,40.10
2019-03-20T11:53:23.470Z,41.39
2019-03-20T11:55:55.126Z,41.73
2019-03-20T11:58:26.893Z,40.29
2019-03-20T12:00:58.595Z,42.10
2019-03-20T12:03:29.855Z,40.60
2019-03-20T12:06:01.117Z,42.32
2019-03-20T12:08:32.471Z,42.74
2019-03-20T12:11:03.897Z,43.48
2019-03-20T12:13:35.728Z,44.78
2019-03-20T12:16:07.261Z,44.98
2019-03-20T12:18:40.390Z,45.51
2019-03-20T12:21:11.651Z,44.63
2019-03-20T12:23:43.034Z,45.09
2019-03-20T12:26:14.808Z,43.76
2019-03-20T12:28:46.147Z,44.35
2019-03-20T12:31:17.518Z,45.01
2019-03-20T12:33:48.924Z,45.45
2019-03-20T12:36:20.275Z,46.06
2019-03-20T12:38:51.733Z,46.05
2019-03-20T12:41:23.597Z,46.13
2019-03-20T12:43:54.789Z,45.39
2019-03-20T12:46:26.128Z,46.54
2019-03-20T12:48:59.704Z,46.17
2019-03-20T12:51:31.867Z,45.32
2019-03-20T12:54:03.155Z,45.59
2019-03-20T12:56:35.581Z,45.14
2019-03-20T12:59:08.569Z,45.97
2019-03-20T13:01:40.384Z,45.40
2019-03-20T13:04:12.205Z,45.75
2019-03-20T13:06:43.849Z,46.24
2019-03-20T13:09:15.606Z,46.48
2019-03-20T13:11:47.302Z,46.50
2019-03-20T13:14:18.582Z,46.47
2019-03-20T13:16:49.938Z,46.62
2019-03-20T13:19:24.259Z,45.92
2019-03-20T13:21:55.615Z,46.02
2019-03-20T13:24:27.015Z,45.98
2019-03-20T13:26:59.752Z,45.57
2019-03-20T13:29:31.089Z,46.23
2019-03-20T13:32:03.747Z,46.55
2019-03-20T13:34:35.897Z,47.62
2019-03-20T13:37:08.362Z,47.40
2019-03-20T13:39:39.922Z,47.23
2019-03-20T13:42:12.347Z,47.78
2019-03-20T13:44:43.744Z,47.46
2019-03-20T13:47:15.109Z,47.53
2019-03-20T13:49:46.950Z,47.27
2019-03-20T14:22:20.744Z,48.32
2019-03-20T14:24:52.286Z,48.43
2019-03-20T14:27:23.601Z,48.63
2019-03-20T14:29:54.980Z,48.74
2019-03-20T14:32:26.384Z,48.82
2019-03-20T14:34:58.089Z,48.87
2019-03-20T14:37:29.468Z,48.74
2019-03-20T14:40:01.696Z,48.92
2019-03-20T14:42:33.102Z,49.26
2019-03-20T14:45:05.322Z,49.92
2019-03-20T14:47:42.042Z,49.42
2019-03-20T14:50:14.504Z,49.20
2019-03-20T14:52:52.139Z,49.44
2019-03-20T14:55:23.524Z,49.39
2019-03-20T14:57:54.848Z,49.56
2019-03-20T15:00:31.114Z,49.53
2019-03-20T15:03:02.494Z,49.49
2019-03-20T15:05:33.941Z,49.59
2019-03-20T15:08:05.323Z,49.79
2019-03-20T15:10:48.887Z,50.28
2019-03-20T15:13:20.343Z,50.54
2019-03-20T15:15:55.576Z,50.58
2019-03-20T15:18:27.051Z,50.79
2019-03-20T15:20:58.766Z,50.84
2019-03-20T15:23:30.219Z,50.89
2019-03-20T15:26:01.419Z,50.90
2019-03-20T15:28:32.773Z,50.98
2019-03-20T15:31:04.115Z,51.09
2019-03-20T15:33:35.667Z,52.38
2019-03-20T15:36:07.150Z,53.68
2019-03-20T15:38:38.512Z,54.65
2019-03-20T15:41:09.890Z,55.35
2019-03-20T15:43:41.255Z,55.65
2019-03-20T15:46:12.580Z,56.33
2019-03-20T15:48:44.174Z,56.82
2019-03-20T15:51:15.710Z,57.12
2019-03-20T15:53:47.506Z,57.67
2019-03-20T15:56:19.042Z,58.99
2019-03-20T15:58:50.371Z,60.24
2019-03-20T16:01:21.730Z,60.95
2019-03-20T16:03:53.053Z,62.15
2019-03-20T16:06:24.447Z,62.56
2019-03-20T16:08:56.909Z,63.63
2019-03-20T16:11:28.609Z,63.99
2019-03-20T16:13:59.777Z,64.20
2019-03-20T16:16:31.232Z,64.13
2019-03-20T16:19:02.612Z,64.41
2019-03-20T16:21:33.944Z,64.69
2019-03-20T16:24:06.596Z,64.44
2019-03-20T16:26:38.009Z,64.36
2019-03-20T16:29:09.316Z,64.70
2019-03-20T16:31:40.656Z,64.60
2019-03-20T16:34:12.163Z,64.58
2019-03-20T16:36:43.638Z,65.06
2019-03-20T16:39:14.905Z,65.04
2019-03-20T16:41:46.577Z,65.11
2019-03-20T16:44:17.953Z,65.36
2019-03-20T16:46:49.278Z,65.43
2019-03-20T16:49:20.689Z,65.87
2019-03-20T16:51:51.995Z,66.17
2019-03-20T16:54:25.334Z,66.33
2019-03-20T16:56:56.439Z,66.45
2019-03-20T16:59:27.753Z,66.81
2019-03-20T17:01:59.069Z,67.06
2019-03-20T17:04:30.439Z,67.30
2019-03-20T17:07:01.765Z,67.40
2019-03-20T17:09:33.223Z,67.69
2019-03-20T17:12:04.603Z,67.79
2019-03-20T17:14:35.927Z,67.77
2019-03-20T17:17:07.289Z,68.08
2019-03-20T17:19:38.659Z,68.33
2019-03-20T17:22:09.974Z,68.50
2019-03-20T17:24:41.326Z,68.67
2019-03-20T17:27:12.693Z,69.21
2019-03-20T17:29:44.127Z,69.00
2019-03-20T17:32:15.649Z,69.52
2019-03-20T17:34:46.912Z,69.55
2019-03-20T17:37:18.382Z,70.04
2019-03-20T17:39:49.671Z,69.78
2019-03-20T17:42:21.000Z,69.67
2019-03-20T17:44:52.325Z,69.83
2019-03-20T17:47:23.652Z,69.79
2019-03-20T17:49:55.070Z,69.63
2019-03-20T17:52:26.377Z,69.84
2019-03-20T17:54:57.668Z,69.68
2019-03-20T17:57:28.967Z,70.39
2019-03-20T18:00:00.332Z,70.11
2019-03-20T18:02:31.900Z,70.00
2019-03-20T18:05:03.576Z,70.00
2019-03-20T18:07:34.847Z,70.49
2019-03-20T18:10:06.693Z,70.56
2019-03-20T18:12:37.856Z,70.40
2019-03-20T18:15:12.489Z,69.96
2019-03-20T18:17:43.783Z,69.98
2019-03-20T18:20:20.213Z,70.31
2019-03-20T18:22:51.508Z,70.16
2019-03-20T18:25:22.841Z,70.60
2019-03-20T18:27:54.166Z,70.63
2019-03-20T18:30:28.139Z,71.12
2019-03-20T18:32:59.860Z,70.90
2019-03-20T18:35:31.177Z,71.12
2019-03-20T18:38:02.676Z,71.44
2019-03-20T18:40:33.857Z,71.13
2019-03-20T18:43:05.185Z,70.92
2019-03-20T18:45:36.570Z,71.31
2019-03-20T18:48:07.887Z,71.79
2019-03-20T18:50:39.273Z,71.75
2019-03-20T18:53:10.607Z,72.25
2019-03-20T18:55:41.954Z,72.22
2019-03-20T18:58:14.228Z,72.11
2019-03-20T19:00:45.461Z,72.76
2019-03-20T19:03:19.997Z,72.61
2019-03-20T19:05:57.418Z,72.56
2019-03-20T19:08:28.845Z,72.88
2019-03-20T19:11:00.368Z,73.42
2019-03-20T19:13:31.647Z,73.15
2019-03-20T19:16:02.998Z,72.94
2019-03-20T19:18:34.337Z,72.36
2019-03-20T19:21:05.690Z,72.81
2019-03-20T19:23:37.054Z,73.12
2019-03-20T19:26:08.518Z,72.95
2019-03-20T19:28:39.846Z,73.37
2019-03-20T19:31:11.180Z,73.26
2019-03-20T19:33:42.496Z,72.73
2019-03-20T19:36:13.742Z,73.06
2019-03-20T19:38:45.165Z,73.25
2019-03-20T19:41:16.479Z,73.02
2019-03-20T19:43:47.794Z,72.94
2019-03-20T19:46:19.062Z,72.95
2019-03-20T19:48:50.484Z,73.58
2019-03-20T19:51:21.773Z,73.25
2019-03-20T19:53:53.172Z,73.56
2019-03-20T19:56:24.421Z,73.82
2019-03-20T19:58:55.784Z,73.71
2019-03-20T20:01:27.245Z,73.85
2019-03-20T20:03:58.656Z,73.48
2019-03-20T20:06:29.984Z,73.67
2019-03-20T20:09:01.337Z,73.49
2019-03-20T20:11:33.634Z,72.77
2019-03-20T20:14:04.664Z,72.68
2019-03-20T20:16:36.015Z,72.88
2019-03-20T20:19:07.377Z,72.80
2019-03-20T20:21:38.668Z,73.02
2019-03-20T20:24:09.987Z,73.20
2019-03-20T20:26:41.354Z,73.20
2019-03-20T20:29:13.881Z,72.79
2019-03-20T20:31:45.149Z,72.71
2019-03-20T20:34:16.362Z,72.27
2019-03-20T20:36:47.622Z,72.13
2019-03-20T20:39:18.830Z,72.31
2019-03-20T20:41:50.110Z,72.34
2019-03-20T20:44:21.430Z,72.17
2019-03-20T20:46:52.612Z,71.77
2019-03-20T20:49:23.823Z,71.80
2019-03-20T20:51:54.966Z,72.22
2019-03-20T20:54:26.173Z,72.09
2019-03-20T20:56:57.263Z,72.04
2019-03-20T20:59:28.520Z,72.13
2019-03-20T21:01:59.812Z,72.01
2019-03-20T21:04:31.378Z,71.53
2019-03-20T21:07:02.664Z,72.02
2019-03-20T21:09:33.800Z,71.88
2019-03-20T21:12:05.106Z,72.43
2019-03-20T21:14:36.330Z,72.45
2019-03-20T21:17:10.694Z,72.46
2019-03-20T21:19:43.170Z,72.36
2019-03-20T21:22:32.779Z,72.34
2019-03-20T21:25:04.050Z,72.37
2019-03-20T21:28:13.401Z,72.22
2019-03-20T21:30:53.677Z,72.40
2019-03-20T21:33:36.819Z,72.12
2019-03-20T21:36:33.811Z,72.68
2019-03-20T21:39:07.113Z,72.83
2019-03-20T21:41:53.482Z,72.92
2019-03-20T21:44:57.959Z,72.86
2019-03-20T21:47:35.890Z,72.79
2019-03-20T21:50:26.928Z,73.07
2019-03-20T21:52:58.273Z,72.75
2019-03-20T21:55:49.115Z,73.02
2019-03-20T21:58:23.533Z,73.02
2019-03-20T22:01:10.365Z,73.48
2019-03-20T22:03:43.778Z,73.43
2019-03-20T22:06:15.620Z,73.60
2019-03-20T22:08:46.742Z,73.09
2019-03-20T22:11:33.333Z,73.42
2019-03-20T22:14:07.811Z,73.37
2019-03-20T22:16:58.475Z,73.74
2019-03-20T22:19:44.776Z,73.70
2019-03-20T22:22:39.045Z,73.64
2019-03-20T22:25:33.013Z,73.53
2019-03-20T22:28:23.675Z,73.83
2019-03-20T22:30:55.019Z,74.25
2019-03-20T22:34:03.478Z,74.25
2019-03-20T22:36:35.372Z,74.25
2019-03-20T22:39:12.592Z,74.48
2019-03-20T22:42:05.019Z,74.64
2019-03-20T22:44:38.096Z,74.82
2019-03-20T22:47:33.499Z,74.15
2019-03-20T22:50:17.137Z,74.14
2019-03-20T22:53:10.972Z,74.78
2019-03-20T22:55:54.093Z,74.83
2019-03-20T22:58:26.286Z,75.05
2019-03-20T23:01:01.196Z,75.16
2019-03-20T23:03:37.014Z,75.75
2019-03-20T23:06:08.377Z,75.67
2019-03-20T23:08:40.129Z,75.42
2019-03-20T23:11:11.289Z,75.37
2019-03-20T23:13:42.519Z,75.40
2019-03-20T23:16:16.100Z,74.97
2019-03-20T23:18:47.354Z,75.11
2019-03-20T23:21:18.559Z,75.16
2019-03-20T23:23:49.659Z,75.22
2019-03-20T23:26:20.867Z,75.60
2019-03-20T23:28:52.196Z,76.23
2019-03-20T23:31:23.436Z,75.47
2019-03-20T23:33:54.593Z,75.39
2019-03-20T23:36:26.674Z,75.39
2019-03-20T23:38:57.753Z,75.41
2019-03-20T23:41:28.881Z,75.73
2019-03-20T23:44:01.082Z,75.61
2019-03-20T23:46:32.423Z,75.95
2019-03-20T23:49:09.664Z,75.14
2019-03-20T23:51:40.928Z,75.64
2019-03-20T23:54:13.514Z,75.35
2019-03-20T23:56:44.611Z,75.58
2019-03-20T23:59:15.773Z,75.63
